sensor_id;sensor_type;location;lat;lon;timestamp;pressure;altitude;pressure_sealevel;temperature;humidity
14790;BME280;7486;51.010;10.366;2024-03-22T00:02:34;98925.34;;;3.94;73.13
14790;BME280;7486;51.010;10.366;2024-03-22T00:05:19;98921.41;;;3.90;73.18
14790;BME280;7486;51.010;10.366;2024-03-22T00:08:05;98912.53;;;3.91;72.46
14790;BME280;7486;51.010;10.366;2024-03-22T00:10:49;98905.13;;;3.86;72.23
14790;BME280;7486;51.010;10.366;2024-03-22T00:13:33;98883.09;;;3.79;72.46
14790;BME280;7486;51.010;10.366;2024-03-22T00:16:18;98927.31;;;3.92;72.23
14790;BME280;7486;51.010;10.366;2024-03-22T00:19:02;98892.88;;;3.87;72.53
14790;BME280;7486;51.010;10.366;2024-03-22T00:21:47;98884.13;;;3.69;73.07
14790;BME280;7486;51.010;10.366;2024-03-22T00:24:32;98884.19;;;3.59;74.33
14790;BME280;7486;51.010;10.366;2024-03-22T00:27:16;98869.19;;;3.51;74.79
14790;BME280;7486;51.010;10.366;2024-03-22T00:30:01;98871.81;;;3.51;75.00
14790;BME280;7486;51.010;10.366;2024-03-22T00:32:46;98869.84;;;3.53;75.32
14790;BME280;7486;51.010;10.366;2024-03-22T00:35:30;98864.72;;;3.61;75.16
14790;BME280;7486;51.010;10.366;2024-03-22T00:38:15;98862.88;;;3.72;75.11
14790;BME280;7486;51.010;10.366;2024-03-22T00:41:00;98858.16;;;3.75;74.78
14790;BME280;7486;51.010;10.366;2024-03-22T00:43:44;98850.03;;;3.51;75.08
14790;BME280;7486;51.010;10.366;2024-03-22T00:46:29;98846.81;;;3.57;75.63
14790;BME280;7486;51.010;10.366;2024-03-22T00:49:13;98846.63;;;3.68;74.86
14790;BME280;7486;51.010;10.366;2024-03-22T00:51:57;98847.69;;;3.75;75.00
14790;BME280;7486;51.010;10.366;2024-03-22T00:54:42;98829.84;;;3.61;74.18
14790;BME280;7486;51.010;10.366;2024-03-22T00:57:27;98837.94;;;3.68;74.96
14790;BME280;7486;51.010;10.366;2024-03-22T01:00:12;98837.28;;;3.65;74.76
14790;BME280;7486;51.010;10.366;2024-03-22T01:02:57;98827.09;;;3.62;74.31
14790;BME280;7486;51.010;10.366;2024-03-22T01:05:41;98829.72;;;3.62;74.60
14790;BME280;7486;51.010;10.366;2024-03-22T01:08:26;98827.22;;;3.61;74.73
14790;BME280;7486;51.010;10.366;2024-03-22T01:11:10;98817.53;;;3.44;75.88
14790;BME280;7486;51.010;10.366;2024-03-22T01:13:55;98814.25;;;3.42;76.69
14790;BME280;7486;51.010;10.366;2024-03-22T01:16:39;98810.75;;;3.51;76.17
14790;BME280;7486;51.010;10.366;2024-03-22T01:19:24;98804.47;;;3.61;75.47
14790;BME280;7486;51.010;10.366;2024-03-22T01:22:08;98796.44;;;3.63;75.24
14790;BME280;7486;51.010;10.366;2024-03-22T01:24:53;98782.47;;;3.54;75.34
14790;BME280;7486;51.010;10.366;2024-03-22T01:27:37;98813.75;;;3.74;75.11
14790;BME280;7486;51.010;10.366;2024-03-22T01:30:22;98799.38;;;3.78;75.16
14790;BME280;7486;51.010;10.366;2024-03-22T01:33:06;98730.97;;;3.45;75.21
14790;BME280;7486;51.010;10.366;2024-03-22T01:35:51;98785.09;;;3.72;75.24
14790;BME280;7486;51.010;10.366;2024-03-22T01:38:35;98802.41;;;3.83;75.31
14790;BME280;7486;51.010;10.366;2024-03-22T01:41:20;98802.09;;;3.86;75.11
14790;BME280;7486;51.010;10.366;2024-03-22T01:44:04;98784.38;;;3.80;75.39
14790;BME280;7486;51.010;10.366;2024-03-22T01:46:49;98797.69;;;3.86;75.63
14790;BME280;7486;51.010;10.366;2024-03-22T01:49:34;98790.41;;;3.80;75.14
14790;BME280;7486;51.010;10.366;2024-03-22T01:52:19;98772.50;;;3.58;75.98
14790;BME280;7486;51.010;10.366;2024-03-22T01:55:03;98786.47;;;3.76;76.57
14790;BME280;7486;51.010;10.366;2024-03-22T01:57:49;98785.84;;;3.82;75.99
14790;BME280;7486;51.010;10.366;2024-03-22T02:00:35;98770.13;;;3.82;75.68
14790;BME280;7486;51.010;10.366;2024-03-22T02:03:21;98778.81;;;3.83;75.40
14790;BME280;7486;51.010;10.366;2024-03-22T02:06:05;98778.81;;;3.83;75.69
14790;BME280;7486;51.010;10.366;2024-03-22T02:08:54;98771.78;;;3.83;76.00
14790;BME280;7486;51.010;10.366;2024-03-22T02:11:39;98771.09;;;3.81;76.21
14790;BME280;7486;51.010;10.366;2024-03-22T02:14:23;98773.41;;;3.66;75.89
14790;BME280;7486;51.010;10.366;2024-03-22T02:17:08;98765.16;;;3.44;77.74
14790;BME280;7486;51.010;10.366;2024-03-22T02:19:53;98750.28;;;3.44;77.18
14790;BME280;7486;51.010;10.366;2024-03-22T02:22:38;98760.00;;;3.52;77.14
14790;BME280;7486;51.010;10.366;2024-03-22T02:25:22;98759.84;;;3.53;76.59
14790;BME280;7486;51.010;10.366;2024-03-22T02:28:06;98761.28;;;3.48;76.37
14790;BME280;7486;51.010;10.366;2024-03-22T02:30:51;98762.25;;;3.47;76.75
14790;BME280;7486;51.010;10.366;2024-03-22T02:33:35;98762.44;;;3.36;76.94
14790;BME280;7486;51.010;10.366;2024-03-22T02:36:20;98758.31;;;3.33;76.70
14790;BME280;7486;51.010;10.366;2024-03-22T02:39:04;98766.34;;;3.22;76.97
14790;BME280;7486;51.010;10.366;2024-03-22T02:41:49;98754.47;;;3.28;76.76
14790;BME280;7486;51.010;10.366;2024-03-22T02:44:33;98752.72;;;3.28;77.27
14790;BME280;7486;51.010;10.366;2024-03-22T02:47:18;98763.13;;;3.38;76.57
14790;BME280;7486;51.010;10.366;2024-03-22T02:50:04;98766.63;;;3.29;77.20
14790;BME280;7486;51.010;10.366;2024-03-22T02:52:49;98731.78;;;3.28;76.82
14790;BME280;7486;51.010;10.366;2024-03-22T02:55:38;98751.75;;;3.47;77.39
14790;BME280;7486;51.010;10.366;2024-03-22T02:58:23;98751.94;;;3.45;76.78
14790;BME280;7486;51.010;10.366;2024-03-22T03:01:07;98733.97;;;3.23;76.96
14790;BME280;7486;51.010;10.366;2024-03-22T03:03:52;98745.41;;;3.32;77.21
14790;BME280;7486;51.010;10.366;2024-03-22T03:06:36;98740.47;;;3.29;78.04
14790;BME280;7486;51.010;10.366;2024-03-22T03:09:20;98735.59;;;3.34;78.35
14790;BME280;7486;51.010;10.366;2024-03-22T03:12:05;98728.44;;;3.26;78.92
14790;BME280;7486;51.010;10.366;2024-03-22T03:14:49;98715.47;;;3.07;79.90
14790;BME280;7486;51.010;10.366;2024-03-22T03:17:34;98713.28;;;3.02;79.81
14790;BME280;7486;51.010;10.366;2024-03-22T03:20:19;98712.75;;;2.99;81.05
14790;BME280;7486;51.010;10.366;2024-03-22T03:23:03;98686.88;;;2.96;80.92
14790;BME280;7486;51.010;10.366;2024-03-22T03:25:48;98638.59;;;2.90;80.17
14790;BME280;7486;51.010;10.366;2024-03-22T03:28:33;98697.81;;;3.36;79.90
14790;BME280;7486;51.010;10.366;2024-03-22T03:31:17;98695.63;;;3.49;78.95
14790;BME280;7486;51.010;10.366;2024-03-22T03:34:02;98699.59;;;3.53;78.44
14790;BME280;7486;51.010;10.366;2024-03-22T03:36:46;98707.47;;;3.53;77.96
14790;BME280;7486;51.010;10.366;2024-03-22T03:39:31;98710.84;;;3.46;78.56
14790;BME280;7486;51.010;10.366;2024-03-22T03:42:16;98709.84;;;3.29;80.49
14790;BME280;7486;51.010;10.366;2024-03-22T03:45:00;98710.59;;;3.39;80.42
14790;BME280;7486;51.010;10.366;2024-03-22T03:47:45;98699.22;;;3.31;80.41
14790;BME280;7486;51.010;10.366;2024-03-22T03:50:29;98699.84;;;3.42;80.93
14790;BME280;7486;51.010;10.366;2024-03-22T03:53:14;98700.41;;;3.36;80.91
14790;BME280;7486;51.010;10.366;2024-03-22T03:55:59;98696.63;;;3.31;82.18
14790;BME280;7486;51.010;10.366;2024-03-22T03:58:46;98694.75;;;3.58;81.05
14790;BME280;7486;51.010;10.366;2024-03-22T04:01:31;98681.56;;;3.33;80.63
14790;BME280;7486;51.010;10.366;2024-03-22T04:04:16;98684.88;;;3.35;80.96
14790;BME280;7486;51.010;10.366;2024-03-22T04:07:00;98686.38;;;3.55;80.92
14790;BME280;7486;51.010;10.366;2024-03-22T04:09:45;98680.69;;;3.59;80.39
14790;BME280;7486;51.010;10.366;2024-03-22T04:12:29;98681.56;;;3.50;81.33
14790;BME280;7486;51.010;10.366;2024-03-22T04:15:14;98654.81;;;3.39;82.04
14790;BME280;7486;51.010;10.366;2024-03-22T04:17:58;98482.94;;;2.41;82.73
14790;BME280;7486;51.010;10.366;2024-03-22T04:20:53;98653.69;;;3.59;82.41
14790;BME280;7486;51.010;10.366;2024-03-22T04:23:38;98628.97;;;3.61;83.09
14790;BME280;7486;51.010;10.366;2024-03-22T04:26:22;98626.75;;;3.92;82.13
14790;BME280;7486;51.010;10.366;2024-03-22T04:29:06;98646.31;;;4.06;81.72
14790;BME280;7486;51.010;10.366;2024-03-22T04:31:51;98641.28;;;4.12;81.04
14790;BME280;7486;51.010;10.366;2024-03-22T04:34:35;98628.94;;;4.05;81.88
14790;BME280;7486;51.010;10.366;2024-03-22T04:37:20;98634.75;;;4.16;81.13
14790;BME280;7486;51.010;10.366;2024-03-22T04:40:05;98638.53;;;4.14;82.04
14790;BME280;7486;51.010;10.366;2024-03-22T04:42:50;98637.44;;;3.99;82.41
14790;BME280;7486;51.010;10.366;2024-03-22T04:45:34;98617.03;;;3.85;83.07
14790;BME280;7486;51.010;10.366;2024-03-22T04:48:20;98632.94;;;3.91;82.97
14790;BME280;7486;51.010;10.366;2024-03-22T04:51:05;98629.47;;;4.08;82.76
14790;BME280;7486;51.010;10.366;2024-03-22T04:53:49;98626.44;;;4.21;82.64
14790;BME280;7486;51.010;10.366;2024-03-22T04:56:34;98619.75;;;4.27;81.20
14790;BME280;7486;51.010;10.366;2024-03-22T04:59:18;98607.97;;;4.39;80.75
14790;BME280;7486;51.010;10.366;2024-03-22T05:02:03;98602.91;;;4.37;80.28
14790;BME280;7486;51.010;10.366;2024-03-22T05:04:48;98628.75;;;4.32;82.60
14790;BME280;7486;51.010;10.366;2024-03-22T05:07:32;98624.72;;;4.46;81.83
14790;BME280;7486;51.010;10.366;2024-03-22T05:10:16;98618.19;;;4.50;81.97
14790;BME280;7486;51.010;10.366;2024-03-22T05:13:01;98620.25;;;4.30;82.29
14790;BME280;7486;51.010;10.366;2024-03-22T05:15:46;98614.44;;;4.18;83.31
14790;BME280;7486;51.010;10.366;2024-03-22T05:18:30;98606.44;;;4.20;82.97
14790;BME280;7486;51.010;10.366;2024-03-22T05:21:15;98595.56;;;4.49;82.60
14790;BME280;7486;51.010;10.366;2024-03-22T05:23:59;98607.38;;;4.53;82.00
14790;BME280;7486;51.010;10.366;2024-03-22T05:26:44;98572.31;;;4.54;81.25
14790;BME280;7486;51.010;10.366;2024-03-22T05:29:29;98590.88;;;4.60;81.05
14790;BME280;7486;51.010;10.366;2024-03-22T05:32:13;98585.00;;;4.75;80.77
14790;BME280;7486;51.010;10.366;2024-03-22T05:34:58;98587.16;;;4.79;80.65
14790;BME280;7486;51.010;10.366;2024-03-22T05:37:42;98583.22;;;4.75;80.57
14790;BME280;7486;51.010;10.366;2024-03-22T05:40:27;98583.84;;;4.77;80.89
14790;BME280;7486;51.010;10.366;2024-03-22T05:43:11;98578.31;;;4.88;80.09
14790;BME280;7486;51.010;10.366;2024-03-22T05:45:56;98574.53;;;4.91;79.96
14790;BME280;7486;51.010;10.366;2024-03-22T05:48:41;98584.75;;;5.10;79.08
14790;BME280;7486;51.010;10.366;2024-03-22T05:51:26;98574.75;;;5.13;79.07
14790;BME280;7486;51.010;10.366;2024-03-22T05:54:10;98536.94;;;4.74;79.20
14790;BME280;7486;51.010;10.366;2024-03-22T05:56:55;98587.34;;;4.86;79.98
14790;BME280;7486;51.010;10.366;2024-03-22T05:59:40;98580.72;;;4.65;80.59
14790;BME280;7486;51.010;10.366;2024-03-22T06:02:24;98581.06;;;4.71;81.55
14790;BME280;7486;51.010;10.366;2024-03-22T06:05:09;98578.22;;;4.56;81.23
14790;BME280;7486;51.010;10.366;2024-03-22T06:07:54;98584.59;;;4.53;81.90
14790;BME280;7486;51.010;10.366;2024-03-22T06:10:38;98587.59;;;4.58;82.19
14790;BME280;7486;51.010;10.366;2024-03-22T06:13:23;98569.47;;;4.39;81.78
14790;BME280;7486;51.010;10.366;2024-03-22T06:16:07;98587.41;;;4.60;82.70
14790;BME280;7486;51.010;10.366;2024-03-22T06:18:52;98575.34;;;4.75;81.91
14790;BME280;7486;51.010;10.366;2024-03-22T06:21:37;98562.09;;;5.01;80.89
14790;BME280;7486;51.010;10.366;2024-03-22T06:24:21;98539.13;;;4.95;80.13
14790;BME280;7486;51.010;10.366;2024-03-22T06:27:06;98532.88;;;5.04;80.13
14790;BME280;7486;51.010;10.366;2024-03-22T06:29:50;98538.00;;;5.13;79.39
14790;BME280;7486;51.010;10.366;2024-03-22T06:32:34;98555.91;;;5.34;78.84
14790;BME280;7486;51.010;10.366;2024-03-22T06:35:19;98553.28;;;5.42;78.59
14790;BME280;7486;51.010;10.366;2024-03-22T06:38:04;98562.47;;;5.38;78.52
14790;BME280;7486;51.010;10.366;2024-03-22T06:40:49;98545.22;;;5.52;78.86
14790;BME280;7486;51.010;10.366;2024-03-22T06:43:33;98541.09;;;5.65;78.36
14790;BME280;7486;51.010;10.366;2024-03-22T06:46:18;98519.75;;;5.60;77.36
14790;BME280;7486;51.010;10.366;2024-03-22T06:49:02;98545.38;;;5.75;77.66
14790;BME280;7486;51.010;10.366;2024-03-22T06:51:47;98538.78;;;5.79;77.10
14790;BME280;7486;51.010;10.366;2024-03-22T06:54:31;98531.19;;;5.84;76.50
14790;BME280;7486;51.010;10.366;2024-03-22T06:57:16;98531.91;;;5.61;77.33
14790;BME280;7486;51.010;10.366;2024-03-22T07:00:01;98533.53;;;5.79;77.33
14790;BME280;7486;51.010;10.366;2024-03-22T07:02:49;98532.53;;;5.80;77.79
14790;BME280;7486;51.010;10.366;2024-03-22T07:05:34;98532.84;;;5.85;78.07
14790;BME280;7486;51.010;10.366;2024-03-22T07:08:18;98535.38;;;6.17;76.90
14790;BME280;7486;51.010;10.366;2024-03-22T07:11:06;98536.75;;;5.97;77.23
14790;BME280;7486;51.010;10.366;2024-03-22T07:13:51;98540.81;;;6.07;76.63
14790;BME280;7486;51.010;10.366;2024-03-22T07:16:35;98541.63;;;6.16;76.12
14790;BME280;7486;51.010;10.366;2024-03-22T07:19:21;98534.53;;;6.25;76.19
14790;BME280;7486;51.010;10.366;2024-03-22T07:22:05;98545.56;;;6.51;74.91
14790;BME280;7486;51.010;10.366;2024-03-22T07:24:50;98539.22;;;6.37;74.96
14790;BME280;7486;51.010;10.366;2024-03-22T07:27:36;98531.94;;;6.47;74.52
14790;BME280;7486;51.010;10.366;2024-03-22T07:30:21;98529.66;;;6.44;74.80
14790;BME280;7486;51.010;10.366;2024-03-22T07:33:05;98527.47;;;6.56;74.09
14790;BME280;7486;51.010;10.366;2024-03-22T07:35:50;98513.88;;;6.44;74.15
14790;BME280;7486;51.010;10.366;2024-03-22T07:38:35;98524.00;;;6.55;74.27
14790;BME280;7486;51.010;10.366;2024-03-22T07:41:19;98524.03;;;6.47;74.75
14790;BME280;7486;51.010;10.366;2024-03-22T07:44:04;98522.25;;;6.48;74.69
14790;BME280;7486;51.010;10.366;2024-03-22T07:46:49;98522.50;;;6.61;74.80
14790;BME280;7486;51.010;10.366;2024-03-22T07:49:34;98514.78;;;6.59;74.99
14790;BME280;7486;51.010;10.366;2024-03-22T07:52:19;98505.69;;;6.70;75.42
14790;BME280;7486;51.010;10.366;2024-03-22T07:55:04;98505.31;;;6.81;74.77
14790;BME280;7486;51.010;10.366;2024-03-22T07:57:48;98501.25;;;6.71;74.68
14790;BME280;7486;51.010;10.366;2024-03-22T08:00:33;98502.97;;;6.86;75.85
14790;BME280;7486;51.010;10.366;2024-03-22T08:03:18;98499.06;;;7.05;74.69
14790;BME280;7486;51.010;10.366;2024-03-22T08:06:02;98496.34;;;6.90;74.29
14790;BME280;7486;51.010;10.366;2024-03-22T08:08:47;98499.25;;;6.73;74.81
14790;BME280;7486;51.010;10.366;2024-03-22T08:11:32;98494.72;;;6.89;74.65
14790;BME280;7486;51.010;10.366;2024-03-22T08:14:17;98502.19;;;7.00;74.51
14790;BME280;7486;51.010;10.366;2024-03-22T08:17:01;98483.50;;;7.10;74.27
14790;BME280;7486;51.010;10.366;2024-03-22T08:19:46;98500.47;;;7.30;73.27
14790;BME280;7486;51.010;10.366;2024-03-22T08:22:31;98500.81;;;7.50;72.77
14790;BME280;7486;51.010;10.366;2024-03-22T08:25:16;98504.44;;;7.49;73.22
14790;BME280;7486;51.010;10.366;2024-03-22T08:28:00;98505.81;;;7.59;72.87
14790;BME280;7486;51.010;10.366;2024-03-22T08:30:45;98494.56;;;7.80;72.47
14790;BME280;7486;51.010;10.366;2024-03-22T08:33:29;98490.06;;;7.95;71.54
14790;BME280;7486;51.010;10.366;2024-03-22T08:36:14;98483.47;;;8.14;71.30
14790;BME280;7486;51.010;10.366;2024-03-22T08:38:59;98476.09;;;8.24;70.90
14790;BME280;7486;51.010;10.366;2024-03-22T08:41:43;98465.06;;;8.35;70.48
14790;BME280;7486;51.010;10.366;2024-03-22T08:44:28;98447.25;;;8.08;71.75
14790;BME280;7486;51.010;10.366;2024-03-22T08:47:12;98463.25;;;8.21;70.86
14790;BME280;7486;51.010;10.366;2024-03-22T08:49:57;98445.59;;;8.07;71.08
14790;BME280;7486;51.010;10.366;2024-03-22T08:52:41;98421.34;;;8.11;70.21
14790;BME280;7486;51.010;10.366;2024-03-22T08:55:26;98447.66;;;8.41;70.08
14790;BME280;7486;51.010;10.366;2024-03-22T08:58:11;98451.97;;;8.27;70.11
14790;BME280;7486;51.010;10.366;2024-03-22T09:00:55;98441.09;;;8.37;69.97
14790;BME280;7486;51.010;10.366;2024-03-22T09:03:40;98441.41;;;8.63;70.66
14790;BME280;7486;51.010;10.366;2024-03-22T09:06:24;98436.91;;;8.63;69.48
14790;BME280;7486;51.010;10.366;2024-03-22T09:09:09;98436.34;;;8.68;69.73
14790;BME280;7486;51.010;10.366;2024-03-22T09:11:53;98436.97;;;8.70;69.65
14790;BME280;7486;51.010;10.366;2024-03-22T09:14:38;98427.59;;;8.67;68.67
14790;BME280;7486;51.010;10.366;2024-03-22T09:17:22;98429.94;;;8.77;69.72
14790;BME280;7486;51.010;10.366;2024-03-22T09:20:07;98403.66;;;8.69;69.13
14790;BME280;7486;51.010;10.366;2024-03-22T09:22:53;98414.00;;;8.92;69.26
14790;BME280;7486;51.010;10.366;2024-03-22T09:25:37;98402.19;;;8.88;68.98
14790;BME280;7486;51.010;10.366;2024-03-22T09:28:22;98422.69;;;9.07;69.39
14790;BME280;7486;51.010;10.366;2024-03-22T09:31:07;98417.97;;;9.02;69.09
14790;BME280;7486;51.010;10.366;2024-03-22T09:33:51;98426.81;;;9.16;69.25
14790;BME280;7486;51.010;10.366;2024-03-22T09:36:35;98417.34;;;9.28;69.61
14790;BME280;7486;51.010;10.366;2024-03-22T09:39:20;98417.59;;;9.33;69.26
14790;BME280;7486;51.010;10.366;2024-03-22T09:42:06;98399.38;;;9.38;68.85
14790;BME280;7486;51.010;10.366;2024-03-22T09:44:50;98402.00;;;9.38;68.92
14790;BME280;7486;51.010;10.366;2024-03-22T09:47:55;98388.41;;;9.41;69.18
14790;BME280;7486;51.010;10.366;2024-03-22T09:50:41;98379.44;;;9.42;69.61
14790;BME280;7486;51.010;10.366;2024-03-22T09:54:15;98377.56;;;9.70;69.74
14790;BME280;7486;51.010;10.366;2024-03-22T09:57:00;98377.00;;;9.82;68.13
14790;BME280;7486;51.010;10.366;2024-03-22T09:59:45;98369.50;;;9.85;68.26
14790;BME280;7486;51.010;10.366;2024-03-22T10:02:30;98368.66;;;9.78;68.48
14790;BME280;7486;51.010;10.366;2024-03-22T10:05:16;98371.38;;;9.57;69.76
14790;BME280;7486;51.010;10.366;2024-03-22T10:08:03;98358.50;;;9.82;70.17
14790;BME280;7486;51.010;10.366;2024-03-22T10:10:50;98349.19;;;9.99;68.85
14790;BME280;7486;51.010;10.366;2024-03-22T10:13:34;98361.44;;;10.13;67.09
14790;BME280;7486;51.010;10.366;2024-03-22T10:16:22;98362.03;;;10.08;67.95
14790;BME280;7486;51.010;10.366;2024-03-22T10:19:09;98364.25;;;10.05;67.99
14790;BME280;7486;51.010;10.366;2024-03-22T10:22:02;98356.16;;;10.19;68.17
14790;BME280;7486;51.010;10.366;2024-03-22T10:24:50;98355.19;;;10.34;67.70
14790;BME280;7486;51.010;10.366;2024-03-22T10:27:39;98361.69;;;10.38;67.99
14790;BME280;7486;51.010;10.366;2024-03-22T10:30:27;98351.78;;;10.66;66.64
14790;BME280;7486;51.010;10.366;2024-03-22T10:33:18;98347.28;;;10.80;66.34
14790;BME280;7486;51.010;10.366;2024-03-22T10:36:03;98341.16;;;10.86;66.21
14790;BME280;7486;51.010;10.366;2024-03-22T10:38:50;98349.56;;;10.96;66.40
14790;BME280;7486;51.010;10.366;2024-03-22T10:41:35;98338.75;;;10.78;66.90
14790;BME280;7486;51.010;10.366;2024-03-22T10:44:20;98322.41;;;10.94;65.88
14790;BME280;7486;51.010;10.366;2024-03-22T10:47:09;98328.50;;;11.14;65.83
14790;BME280;7486;51.010;10.366;2024-03-22T10:52:58;98306.09;;;10.97;65.73
14790;BME280;7486;51.010;10.366;2024-03-22T10:55:48;98286.16;;;10.81;65.79
14790;BME280;7486;51.010;10.366;2024-03-22T10:58:39;98300.41;;;10.87;65.91
14790;BME280;7486;51.010;10.366;2024-03-22T11:01:26;98305.28;;;10.90;66.24
14790;BME280;7486;51.010;10.366;2024-03-22T11:04:11;98297.38;;;10.63;67.03
14790;BME280;7486;51.010;10.366;2024-03-22T11:06:58;98292.91;;;10.64;67.28
14790;BME280;7486;51.010;10.366;2024-03-22T11:09:51;98288.56;;;10.89;66.91
14790;BME280;7486;51.010;10.366;2024-03-22T11:13:01;98278.81;;;10.83;66.43
14790;BME280;7486;51.010;10.366;2024-03-22T11:15:48;98275.97;;;10.85;66.83
14790;BME280;7486;51.010;10.366;2024-03-22T11:18:35;98279.81;;;11.02;66.71
14790;BME280;7486;51.010;10.366;2024-03-22T11:21:20;98274.66;;;11.13;65.94
14790;BME280;7486;51.010;10.366;2024-03-22T11:24:06;98280.97;;;11.26;65.67
14790;BME280;7486;51.010;10.366;2024-03-22T11:26:53;98248.94;;;11.27;65.37
14790;BME280;7486;51.010;10.366;2024-03-22T11:29:38;98269.44;;;11.51;65.37
14790;BME280;7486;51.010;10.366;2024-03-22T11:32:26;98265.56;;;11.54;64.34
14790;BME280;7486;51.010;10.366;2024-03-22T11:35:11;98246.19;;;11.60;65.04
14790;BME280;7486;51.010;10.366;2024-03-22T11:37:57;98256.25;;;11.83;64.55
14790;BME280;7486;51.010;10.366;2024-03-22T11:40:44;98224.91;;;11.66;63.59
14790;BME280;7486;51.010;10.366;2024-03-22T11:43:32;98237.00;;;11.94;63.55
14790;BME280;7486;51.010;10.366;2024-03-22T11:46:19;98232.19;;;12.09;64.16
14790;BME280;7486;51.010;10.366;2024-03-22T11:49:07;98229.22;;;12.23;64.27
14790;BME280;7486;51.010;10.366;2024-03-22T11:51:53;98211.31;;;12.19;62.94
14790;BME280;7486;51.010;10.366;2024-03-22T11:54:37;98206.56;;;11.96;63.53
14790;BME280;7486;51.010;10.366;2024-03-22T11:57:24;98209.06;;;11.91;63.55
14790;BME280;7486;51.010;10.366;2024-03-22T12:00:09;98195.97;;;11.90;62.86
14790;BME280;7486;51.010;10.366;2024-03-22T12:02:59;98198.63;;;11.90;63.28
14790;BME280;7486;51.010;10.366;2024-03-22T12:05:45;98189.81;;;11.96;64.22
14790;BME280;7486;51.010;10.366;2024-03-22T12:08:31;98192.28;;;12.22;64.06
14790;BME280;7486;51.010;10.366;2024-03-22T12:11:17;98180.94;;;12.33;63.73
14790;BME280;7486;51.010;10.366;2024-03-22T12:14:02;98182.72;;;12.39;62.26
14790;BME280;7486;51.010;10.366;2024-03-22T12:16:46;98183.75;;;12.38;63.15
14790;BME280;7486;51.010;10.366;2024-03-22T12:19:35;98171.81;;;12.47;62.64
14790;BME280;7486;51.010;10.366;2024-03-22T12:22:22;98167.03;;;12.81;62.28
14790;BME280;7486;51.010;10.366;2024-03-22T12:25:10;98152.22;;;12.85;62.69
14790;BME280;7486;51.010;10.366;2024-03-22T12:27:54;98159.91;;;12.74;60.50
14790;BME280;7486;51.010;10.366;2024-03-22T12:30:39;98150.16;;;12.68;61.81
14790;BME280;7486;51.010;10.366;2024-03-22T12:33:26;98104.06;;;12.38;61.69
14790;BME280;7486;51.010;10.366;2024-03-22T12:36:10;98123.69;;;12.19;61.52
14790;BME280;7486;51.010;10.366;2024-03-22T12:38:56;98143.69;;;12.40;61.77
14790;BME280;7486;51.010;10.366;2024-03-22T12:41:40;98141.25;;;12.63;61.69
14790;BME280;7486;51.010;10.366;2024-03-22T12:44:25;98141.38;;;12.68;62.31
14790;BME280;7486;51.010;10.366;2024-03-22T12:47:11;98113.03;;;12.80;61.81
14790;BME280;7486;51.010;10.366;2024-03-22T12:49:56;98124.03;;;12.65;60.24
14790;BME280;7486;51.010;10.366;2024-03-22T12:52:41;98098.22;;;12.30;59.78
14790;BME280;7486;51.010;10.366;2024-03-22T12:55:26;98116.44;;;12.26;59.73
14790;BME280;7486;51.010;10.366;2024-03-22T12:58:10;98097.19;;;12.31;59.83
14790;BME280;7486;51.010;10.366;2024-03-22T13:00:57;98102.47;;;12.55;59.79
14790;BME280;7486;51.010;10.366;2024-03-22T13:03:43;98101.16;;;12.83;59.80
14790;BME280;7486;51.010;10.366;2024-03-22T13:06:28;98106.91;;;12.98;58.58
14790;BME280;7486;51.010;10.366;2024-03-22T13:09:13;98079.78;;;12.89;58.08
14790;BME280;7486;51.010;10.366;2024-03-22T13:11:58;98064.28;;;13.04;57.34
14790;BME280;7486;51.010;10.366;2024-03-22T13:14:46;98093.44;;;13.11;58.41
14790;BME280;7486;51.010;10.366;2024-03-22T13:17:31;98095.66;;;12.96;56.67
14790;BME280;7486;51.010;10.366;2024-03-22T13:20:15;98089.69;;;12.82;56.74
14790;BME280;7486;51.010;10.366;2024-03-22T13:23:01;98082.38;;;12.78;57.34
14790;BME280;7486;51.010;10.366;2024-03-22T13:25:47;98079.16;;;12.76;57.27
14790;BME280;7486;51.010;10.366;2024-03-22T13:28:31;98082.84;;;12.74;56.51
14790;BME280;7486;51.010;10.366;2024-03-22T13:31:17;98071.84;;;12.71;55.73
14790;BME280;7486;51.010;10.366;2024-03-22T13:34:01;98069.53;;;12.74;56.72
14790;BME280;7486;51.010;10.366;2024-03-22T13:36:46;98048.31;;;12.56;56.72
14790;BME280;7486;51.010;10.366;2024-03-22T13:39:31;98057.72;;;12.89;56.26
14790;BME280;7486;51.010;10.366;2024-03-22T13:42:17;98045.53;;;12.81;55.59
14790;BME280;7486;51.010;10.366;2024-03-22T13:45:03;98051.41;;;12.71;55.86
14790;BME280;7486;51.010;10.366;2024-03-22T13:47:48;98044.47;;;12.70;56.50
14790;BME280;7486;51.010;10.366;2024-03-22T13:50:35;98043.56;;;12.77;56.69
14790;BME280;7486;51.010;10.366;2024-03-22T13:53:20;98042.59;;;12.71;56.46
14790;BME280;7486;51.010;10.366;2024-03-22T13:56:11;98026.44;;;12.72;56.67
14790;BME280;7486;51.010;10.366;2024-03-22T13:58:55;98034.59;;;12.89;55.69
14790;BME280;7486;51.010;10.366;2024-03-22T14:01:40;98038.94;;;13.02;56.07
14790;BME280;7486;51.010;10.366;2024-03-22T14:04:25;98026.72;;;12.83;57.17
14790;BME280;7486;51.010;10.366;2024-03-22T14:07:11;98033.66;;;12.84;56.74
14790;BME280;7486;51.010;10.366;2024-03-22T14:09:56;98012.59;;;12.70;56.48
14790;BME280;7486;51.010;10.366;2024-03-22T14:12:42;98035.44;;;12.71;56.98
14790;BME280;7486;51.010;10.366;2024-03-22T14:15:26;98034.41;;;12.54;58.54
14790;BME280;7486;51.010;10.366;2024-03-22T14:18:11;98019.94;;;12.50;59.24
14790;BME280;7486;51.010;10.366;2024-03-22T14:20:56;98028.34;;;12.47;57.92
14790;BME280;7486;51.010;10.366;2024-03-22T14:23:41;98017.53;;;12.49;58.22
14790;BME280;7486;51.010;10.366;2024-03-22T14:26:28;98010.22;;;12.62;58.27
14790;BME280;7486;51.010;10.366;2024-03-22T14:29:14;97994.25;;;12.81;57.73
14790;BME280;7486;51.010;10.366;2024-03-22T14:31:59;97988.44;;;12.72;57.17
14790;BME280;7486;51.010;10.366;2024-03-22T14:34:44;97991.34;;;12.70;57.57
14790;BME280;7486;51.010;10.366;2024-03-22T14:37:29;97986.44;;;12.67;57.97
14790;BME280;7486;51.010;10.366;2024-03-22T14:40:14;97985.03;;;12.47;58.11
14790;BME280;7486;51.010;10.366;2024-03-22T14:42:59;97991.47;;;12.57;59.12
14790;BME280;7486;51.010;10.366;2024-03-22T14:45:44;97990.72;;;12.50;59.06
14790;BME280;7486;51.010;10.366;2024-03-22T14:48:31;97982.09;;;12.55;58.08